Time;durP1;ratioP1;P1;durP2;ratioP2;P2;SDS_P1;SDS_P2;PMS_P1;PMS_P2;Temp;Humidity;BMP_temperature;BMP_pressure;BME280_temperature;BME280_humidity;BME280_pressure;Samples;Min_cycle;Max_cycle;Signal;HPM_P1;HPM_P2
2023/10/22 00:01:40;;;;;;;2.03;0.73;;;;;;;;;;5055337;28;20044;-48
2023/10/22 00:04:06;;;;;;;2.17;0.50;;;;;;;;;;5057784;28;20103;-46
2023/10/22 00:06:31;;;;;;;2.05;1.02;;;;;;;;;;5058548;28;20078;-49
2023/10/22 00:08:57;;;;;;;1.48;1.17;;;;;;;;;;5055911;28;20053;-46
2023/10/22 00:11:22;;;;;;;2.35;0.68;;;;;;;;;;5065162;28;20052;-43
2023/10/22 00:13:47;;;;;;;3.55;0.57;;;;;;;;;;5053432;28;20095;-43
2023/10/22 00:16:13;;;;;;;1.55;0.43;;;;;;;;;;5060628;28;20036;-49
2023/10/22 00:18:38;;;;;;;3.25;0.50;;;;;;;;;;5056482;28;20525;-48
2023/10/22 00:21:08;;;;;;;3.13;2.13;;;;;;;;;;5058426;28;20021;-49
2023/10/22 00:23:34;;;;;;;1.42;0.40;;;;;;;;;;5065328;28;20061;-48
2023/10/22 00:25:59;;;;;;;2.28;0.30;;;;;;;;;;5058994;28;20032;-45
2023/10/22 00:28:25;;;;;;;2.03;0.77;;;;;;;;;;5063249;28;20033;-46
2023/10/22 00:30:50;;;;;;;3.72;1.25;;;;;;;;;;5057580;28;20048;-44
2023/10/22 00:33:16;;;;;;;2.17;0.93;;;;;;;;;;5066041;28;20033;-44
2023/10/22 00:35:41;;;;;;;2.63;0.28;;;;;;;;;;5058554;28;20055;-48
2023/10/22 00:38:06;;;;;;;1.40;0.22;;;;;;;;;;5058221;28;20461;-49
2023/10/22 00:40:32;;;;;;;1.95;0.60;;;;;;;;;;5061364;28;20363;-44
2023/10/22 00:42:57;;;;;;;2.50;0.32;;;;;;;;;;5056725;28;20036;-45
2023/10/22 00:45:23;;;;;;;1.10;0.20;;;;;;;;;;5057223;28;20036;-46
2023/10/22 00:47:48;;;;;;;2.10;1.02;;;;;;;;;;5055249;28;20093;-47
2023/10/22 00:50:14;;;;;;;2.83;0.50;;;;;;;;;;5066949;28;20545;-45
2023/10/22 00:52:40;;;;;;;1.67;0.40;;;;;;;;;;5056301;28;20498;-45
2023/10/22 00:55:06;;;;;;;1.73;0.80;;;;;;;;;;5057021;28;20025;-45
2023/10/22 00:57:32;;;;;;;2.38;0.63;;;;;;;;;;5058123;28;20051;-47
2023/10/22 00:59:58;;;;;;;1.35;0.57;;;;;;;;;;5061575;28;20637;-46
2023/10/22 01:02:23;;;;;;;2.65;0.35;;;;;;;;;;5058691;28;20391;-45
2023/10/22 01:04:49;;;;;;;2.22;0.20;;;;;;;;;;5056436;28;20024;-43
2023/10/22 01:07:15;;;;;;;2.78;0.50;;;;;;;;;;5058078;28;20116;-46
2023/10/22 01:09:40;;;;;;;2.90;0.45;;;;;;;;;;5056771;28;20028;-45
2023/10/22 01:12:06;;;;;;;3.17;0.32;;;;;;;;;;5057700;28;20041;-46
2023/10/22 01:14:32;;;;;;;4.25;0.50;;;;;;;;;;5063971;28;20059;-47
2023/10/22 01:16:57;;;;;;;1.08;0.95;;;;;;;;;;5055236;28;20064;-50
2023/10/22 01:19:24;;;;;;;1.30;1.20;;;;;;;;;;5060595;28;20088;-45
2023/10/22 01:21:49;;;;;;;2.83;0.82;;;;;;;;;;5060731;28;20037;-48
2023/10/22 01:24:15;;;;;;;2.40;0.63;;;;;;;;;;5058519;28;20021;-47
2023/10/22 01:26:44;;;;;;;2.15;0.77;;;;;;;;;;5058766;28;20044;-49
2023/10/22 01:29:12;;;;;;;2.35;1.17;;;;;;;;;;5057617;28;20024;-45
2023/10/22 01:31:38;;;;;;;0.50;0.25;;;;;;;;;;5049804;28;20133;-43
2023/10/22 01:34:04;;;;;;;3.17;0.63;;;;;;;;;;5057118;28;20073;-43
2023/10/22 01:36:30;;;;;;;1.65;0.75;;;;;;;;;;5062609;28;20584;-48
2023/10/22 01:38:55;;;;;;;1.50;0.40;;;;;;;;;;5061381;28;20033;-44
2023/10/22 01:41:21;;;;;;;1.70;0.45;;;;;;;;;;5055383;28;20739;-44
2023/10/22 01:43:46;;;;;;;2.60;0.55;;;;;;;;;;5062845;28;20029;-50
2023/10/22 01:46:11;;;;;;;3.88;0.82;;;;;;;;;;5055869;28;20086;-46
2023/10/22 01:48:38;;;;;;;1.75;0.20;;;;;;;;;;5063491;28;20045;-45
2023/10/22 01:51:03;;;;;;;1.90;0.35;;;;;;;;;;5057170;28;20033;-46
2023/10/22 01:53:29;;;;;;;2.22;0.73;;;;;;;;;;5056134;28;20143;-47
2023/10/22 01:55:55;;;;;;;1.00;0.73;;;;;;;;;;5062811;28;20032;-47
2023/10/22 01:58:20;;;;;;;2.75;1.20;;;;;;;;;;5059496;28;20060;-47
2023/10/22 02:00:46;;;;;;;2.65;0.70;;;;;;;;;;5057197;28;20475;-46
2023/10/22 02:03:11;;;;;;;1.60;0.95;;;;;;;;;;5059299;28;20036;-44
2023/10/22 02:05:36;;;;;;;1.58;0.22;;;;;;;;;;5055936;28;20607;-46
2023/10/22 02:08:02;;;;;;;1.05;0.32;;;;;;;;;;5054506;28;20053;-44
2023/10/22 02:10:28;;;;;;;1.25;0.28;;;;;;;;;;5054304;28;20114;-48
2023/10/22 02:12:53;;;;;;;2.55;0.63;;;;;;;;;;5056127;28;20043;-46
2023/10/22 02:15:19;;;;;;;1.85;0.75;;;;;;;;;;5066334;28;20385;-46
2023/10/22 02:17:44;;;;;;;1.13;0.57;;;;;;;;;;5056922;28;20045;-43
2023/10/22 02:20:10;;;;;;;1.55;0.98;;;;;;;;;;5055559;28;20397;-46
2023/10/22 02:22:37;;;;;;;2.72;0.70;;;;;;;;;;5055311;28;20162;-43
2023/10/22 02:25:03;;;;;;;1.85;0.75;;;;;;;;;;5060093;28;20537;-44
2023/10/22 02:27:29;;;;;;;2.28;0.57;;;;;;;;;;5052279;28;20124;-46
2023/10/22 02:29:54;;;;;;;1.33;0.30;;;;;;;;;;5059395;28;20071;-48
2023/10/22 02:32:20;;;;;;;5.57;2.00;;;;;;;;;;5068627;28;20398;-46
2023/10/22 02:34:45;;;;;;;1.52;0.80;;;;;;;;;;5055697;28;20025;-45
2023/10/22 02:37:10;;;;;;;0.75;0.40;;;;;;;;;;5054360;28;20072;-49
2023/10/22 02:39:36;;;;;;;1.95;1.08;;;;;;;;;;5059413;28;20119;-44
2023/10/22 02:42:01;;;;;;;1.88;0.77;;;;;;;;;;5053759;28;20049;-44
2023/10/22 02:44:27;;;;;;;1.55;0.80;;;;;;;;;;5047988;28;20035;-48
2023/10/22 02:46:52;;;;;;;1.30;0.50;;;;;;;;;;5038143;28;20044;-47
2023/10/22 02:49:18;;;;;;;1.50;0.88;;;;;;;;;;5055664;28;20099;-44
2023/10/22 02:51:43;;;;;;;1.52;0.68;;;;;;;;;;5055727;28;20093;-48
2023/10/22 02:54:09;;;;;;;2.20;0.50;;;;;;;;;;5054623;28;20037;-43
2023/10/22 02:56:34;;;;;;;1.52;0.60;;;;;;;;;;5067209;28;20086;-44
2023/10/22 02:59:00;;;;;;;4.68;0.50;;;;;;;;;;5056531;28;20052;-47
2023/10/22 03:01:26;;;;;;;1.85;0.82;;;;;;;;;;5065933;28;20091;-46
2023/10/22 03:03:52;;;;;;;2.22;0.40;;;;;;;;;;5058664;28;20033;-48
2023/10/22 03:06:17;;;;;;;1.38;0.38;;;;;;;;;;5053937;28;20037;-46
2023/10/22 03:08:43;;;;;;;1.73;0.75;;;;;;;;;;5051874;28;20057;-45
2023/10/22 03:11:16;;;;;;;1.00;0.50;;;;;;;;;;5062385;28;20045;-44
2023/10/22 03:13:42;;;;;;;1.80;0.70;;;;;;;;;;5053740;28;20029;-45
2023/10/22 03:16:13;;;;;;;1.17;0.45;;;;;;;;;;5053442;28;20439;-44
2023/10/22 03:18:40;;;;;;;2.00;0.63;;;;;;;;;;5057959;28;20115;-43
2023/10/22 03:21:16;;;;;;;3.10;1.02;;;;;;;;;;5057165;28;20039;-46
2023/10/22 03:23:42;;;;;;;1.60;0.63;;;;;;;;;;5054827;28;20068;-47
2023/10/22 03:26:09;;;;;;;0.70;0.65;;;;;;;;;;5055450;28;20037;-47
2023/10/22 03:28:37;;;;;;;1.40;0.70;;;;;;;;;;5051869;28;20510;-45
2023/10/22 03:31:04;;;;;;;2.45;0.73;;;;;;;;;;5052705;28;20491;-45
2023/10/22 03:33:31;;;;;;;1.13;0.38;;;;;;;;;;5054068;28;20449;-46
2023/10/22 03:35:57;;;;;;;2.85;0.95;;;;;;;;;;5055463;28;20075;-46
2023/10/22 03:38:23;;;;;;;0.90;0.40;;;;;;;;;;5055380;28;20033;-49
2023/10/22 03:40:49;;;;;;;1.30;0.90;;;;;;;;;;5052956;28;20043;-49
2023/10/22 03:43:14;;;;;;;1.92;0.40;;;;;;;;;;5050841;28;20037;-43
2023/10/22 03:45:40;;;;;;;0.98;0.40;;;;;;;;;;5054131;28;20051;-44
2023/10/22 03:48:05;;;;;;;3.38;0.73;;;;;;;;;;5056274;28;20494;-44
2023/10/22 03:50:31;;;;;;;1.98;0.75;;;;;;;;;;5055475;28;20394;-44
2023/10/22 03:52:56;;;;;;;2.05;0.88;;;;;;;;;;5059177;28;20102;-46
2023/10/22 03:55:21;;;;;;;1.45;0.85;;;;;;;;;;5060008;28;20391;-44
2023/10/22 03:57:47;;;;;;;3.35;1.20;;;;;;;;;;5055121;28;20566;-44
2023/10/22 04:00:13;;;;;;;1.88;0.80;;;;;;;;;;5054810;28;20111;-43
2023/10/22 04:02:39;;;;;;;2.33;0.90;;;;;;;;;;5055262;28;20040;-46
2023/10/22 04:05:05;;;;;;;3.42;1.52;;;;;;;;;;5053629;28;20028;-49
2023/10/22 04:07:31;;;;;;;15.10;5.07;;;;;;;;;;5050143;28;20056;-45
2023/10/22 04:09:56;;;;;;;22.35;10.55;;;;;;;;;;5055361;28;20490;-48
2023/10/22 04:12:22;;;;;;;36.78;19.65;;;;;;;;;;5058064;28;20045;-45
2023/10/22 04:14:47;;;;;;;48.55;23.10;;;;;;;;;;5053470;28;20486;-43
2023/10/22 04:17:13;;;;;;;36.28;19.15;;;;;;;;;;5056830;28;20041;-45
2023/10/22 04:19:38;;;;;;;20.23;9.32;;;;;;;;;;5057553;28;20550;-44
2023/10/22 04:22:03;;;;;;;8.10;5.57;;;;;;;;;;5060464;28;20041;-44
2023/10/22 04:24:30;;;;;;;10.85;5.30;;;;;;;;;;5052714;28;20039;-44
2023/10/22 04:26:55;;;;;;;6.13;2.50;;;;;;;;;;5055759;28;20071;-46
2023/10/22 04:29:21;;;;;;;5.90;2.38;;;;;;;;;;5053407;28;20017;-47
2023/10/22 04:31:46;;;;;;;3.72;1.60;;;;;;;;;;5057809;28;20071;-45
2023/10/22 04:34:12;;;;;;;3.08;1.15;;;;;;;;;;5054996;28;20021;-45
2023/10/22 04:36:37;;;;;;;10.20;4.72;;;;;;;;;;5055344;28;20387;-47
2023/10/22 04:39:03;;;;;;;16.42;7.82;;;;;;;;;;5059758;28;20036;-43
2023/10/22 04:41:28;;;;;;;9.20;4.55;;;;;;;;;;5059699;28;20031;-50
2023/10/22 04:43:54;;;;;;;14.00;4.32;;;;;;;;;;5059030;28;20374;-46
2023/10/22 04:46:20;;;;;;;6.18;4.03;;;;;;;;;;5047035;28;20540;-43
2023/10/22 04:48:45;;;;;;;4.18;1.63;;;;;;;;;;5066527;28;20024;-47
2023/10/22 04:51:11;;;;;;;2.83;1.38;;;;;;;;;;5056728;28;20033;-45
2023/10/22 04:53:36;;;;;;;1.58;1.08;;;;;;;;;;5059284;28;20021;-43
2023/10/22 04:56:02;;;;;;;3.40;0.77;;;;;;;;;;5060100;28;20033;-44
2023/10/22 04:58:28;;;;;;;3.47;1.35;;;;;;;;;;5058019;28;20473;-48
2023/10/22 05:00:55;;;;;;;5.20;1.05;;;;;;;;;;5061577;28;20029;-44
2023/10/22 05:03:21;;;;;;;3.00;0.90;;;;;;;;;;5058905;28;20158;-44
2023/10/22 05:05:46;;;;;;;3.20;0.88;;;;;;;;;;5052168;28;20056;-46
2023/10/22 05:08:11;;;;;;;1.50;0.68;;;;;;;;;;5049939;28;20490;-45
2023/10/22 05:10:40;;;;;;;3.03;0.88;;;;;;;;;;5059888;28;20032;-47
2023/10/22 05:13:08;;;;;;;4.53;1.80;;;;;;;;;;5050411;28;20052;-48
2023/10/22 05:15:33;;;;;;;3.47;1.02;;;;;;;;;;5064902;28;20024;-43
2023/10/22 05:17:59;;;;;;;2.83;0.90;;;;;;;;;;5060120;28;20099;-45
2023/10/22 05:20:30;;;;;;;2.25;0.63;;;;;;;;;;5057324;28;20025;-47
2023/10/22 05:22:57;;;;;;;2.13;0.73;;;;;;;;;;5057030;28;20071;-43
2023/10/22 05:25:22;;;;;;;2.15;0.68;;;;;;;;;;5049821;28;20028;-46
2023/10/22 05:27:48;;;;;;;2.95;1.38;;;;;;;;;;5065841;28;20044;-46
2023/10/22 05:30:14;;;;;;;1.73;0.77;;;;;;;;;;5056001;28;20059;-49
2023/10/22 05:32:39;;;;;;;2.85;0.90;;;;;;;;;;5057163;28;20041;-44
2023/10/22 05:35:06;;;;;;;1.88;0.77;;;;;;;;;;5055748;28;20025;-44
2023/10/22 05:37:32;;;;;;;1.27;0.32;;;;;;;;;;5060196;28;20494;-47
2023/10/22 05:39:57;;;;;;;3.38;0.90;;;;;;;;;;5054810;28;20047;-48
2023/10/22 05:42:22;;;;;;;3.30;1.20;;;;;;;;;;5060080;28;20044;-48
2023/10/22 05:44:48;;;;;;;2.55;0.82;;;;;;;;;;5057528;28;20029;-44
2023/10/22 05:47:13;;;;;;;3.40;0.98;;;;;;;;;;5050817;28;20051;-44
2023/10/22 05:49:39;;;;;;;2.40;0.47;;;;;;;;;;5056311;28;20033;-44
2023/10/22 05:52:04;;;;;;;1.83;0.77;;;;;;;;;;5057452;28;20041;-45
2023/10/22 05:54:29;;;;;;;2.67;1.15;;;;;;;;;;5064448;28;20064;-49
2023/10/22 05:56:55;;;;;;;1.80;0.63;;;;;;;;;;5061398;28;20045;-47
2023/10/22 05:59:20;;;;;;;1.52;1.25;;;;;;;;;;5057520;28;20041;-48
2023/10/22 06:01:46;;;;;;;4.78;2.30;;;;;;;;;;5054764;28;20067;-46
2023/10/22 06:04:11;;;;;;;2.35;0.80;;;;;;;;;;5065214;28;20494;-45
2023/10/22 06:06:37;;;;;;;2.55;1.20;;;;;;;;;;5057594;28;20029;-47
2023/10/22 06:09:03;;;;;;;2.53;0.73;;;;;;;;;;5054874;28;20052;-45
2023/10/22 06:11:29;;;;;;;2.63;0.77;;;;;;;;;;5054182;28;20033;-44
2023/10/22 06:13:56;;;;;;;1.65;0.60;;;;;;;;;;5065178;28;20112;-48
2023/10/22 06:16:23;;;;;;;2.13;0.80;;;;;;;;;;5054500;28;20041;-45
2023/10/22 06:18:48;;;;;;;2.05;1.20;;;;;;;;;;5055154;28;20056;-48
2023/10/22 06:21:15;;;;;;;4.18;1.10;;;;;;;;;;5058405;28;20067;-46
2023/10/22 06:23:40;;;;;;;5.22;0.60;;;;;;;;;;5057154;28;20048;-51
2023/10/22 06:26:10;;;;;;;2.67;1.65;;;;;;;;;;5055428;28;20386;-47
2023/10/22 06:28:36;;;;;;;2.08;1.65;;;;;;;;;;5062260;28;20076;-45
2023/10/22 06:31:12;;;;;;;2.10;1.23;;;;;;;;;;5051947;28;20029;-44
2023/10/22 06:33:39;;;;;;;3.25;1.92;;;;;;;;;;5052153;28;20037;-48
2023/10/22 06:36:15;;;;;;;2.20;0.88;;;;;;;;;;5059066;28;20112;-47
2023/10/22 06:38:41;;;;;;;1.85;0.55;;;;;;;;;;5063163;28;20044;-49
2023/10/22 06:41:15;;;;;;;1.88;1.00;;;;;;;;;;5056536;28;20139;-49
2023/10/22 06:43:41;;;;;;;2.50;0.77;;;;;;;;;;5051430;28;20044;-44
2023/10/22 06:46:06;;;;;;;2.58;0.90;;;;;;;;;;5054912;28;20026;-47
2023/10/22 06:48:32;;;;;;;2.58;0.47;;;;;;;;;;5054393;28;20603;-44
2023/10/22 06:50:57;;;;;;;3.67;0.60;;;;;;;;;;5055814;28;20029;-44
2023/10/22 06:53:22;;;;;;;4.40;1.05;;;;;;;;;;5052075;28;20049;-46
2023/10/22 06:55:48;;;;;;;2.28;0.75;;;;;;;;;;5055709;28;20033;-46
2023/10/22 06:58:13;;;;;;;3.10;1.02;;;;;;;;;;5056590;28;20036;-49
2023/10/22 07:00:38;;;;;;;2.22;0.88;;;;;;;;;;5051260;28;20060;-48
2023/10/22 07:03:04;;;;;;;2.83;1.40;;;;;;;;;;5054270;28;20539;-44
2023/10/22 07:05:29;;;;;;;1.75;0.60;;;;;;;;;;5054836;28;20410;-44
2023/10/22 07:07:55;;;;;;;3.58;1.17;;;;;;;;;;5052026;28;20413;-43
2023/10/22 07:10:20;;;;;;;2.10;0.90;;;;;;;;;;5049137;28;20183;-47
2023/10/22 07:12:46;;;;;;;2.55;0.73;;;;;;;;;;5056447;28;20135;-47
2023/10/22 07:15:12;;;;;;;2.05;0.80;;;;;;;;;;5057076;28;20020;-46
2023/10/22 07:17:38;;;;;;;3.75;1.50;;;;;;;;;;5054520;28;20044;-47
2023/10/22 07:20:05;;;;;;;2.17;1.33;;;;;;;;;;5053736;28;20033;-48
2023/10/22 07:22:31;;;;;;;5.05;1.83;;;;;;;;;;5054351;28;20061;-49
2023/10/22 07:24:56;;;;;;;3.15;1.13;;;;;;;;;;5056845;28;20048;-48
2023/10/22 07:27:21;;;;;;;2.55;1.45;;;;;;;;;;5055983;28;20447;-46
2023/10/22 07:29:47;;;;;;;4.00;1.58;;;;;;;;;;5055784;28;20112;-46
2023/10/22 07:32:13;;;;;;;3.70;1.50;;;;;;;;;;5047949;28;20045;-47
2023/10/22 07:34:38;;;;;;;3.95;1.95;;;;;;;;;;5053759;28;20025;-47
2023/10/22 07:37:03;;;;;;;3.17;1.33;;;;;;;;;;5059389;28;20037;-43
2023/10/22 07:39:29;;;;;;;5.93;1.85;;;;;;;;;;5048079;28;20044;-44
2023/10/22 07:41:54;;;;;;;2.53;1.23;;;;;;;;;;5054940;28;20111;-49
2023/10/22 07:44:20;;;;;;;3.40;1.50;;;;;;;;;;5056613;28;20052;-46
2023/10/22 07:46:45;;;;;;;2.03;1.42;;;;;;;;;;5051846;28;20076;-47
2023/10/22 07:49:11;;;;;;;3.70;1.75;;;;;;;;;;5053781;28;20021;-45
2023/10/22 07:51:37;;;;;;;2.72;2.10;;;;;;;;;;5055373;28;20043;-45
2023/10/22 07:54:02;;;;;;;5.75;2.72;;;;;;;;;;5048924;28;20021;-46
2023/10/22 07:56:28;;;;;;;3.35;1.83;;;;;;;;;;5054702;28;20021;-46
2023/10/22 07:58:53;;;;;;;3.58;1.52;;;;;;;;;;5053331;28;20149;-49
2023/10/22 08:01:19;;;;;;;2.58;1.38;;;;;;;;;;5061735;28;20036;-47
2023/10/22 08:03:45;;;;;;;1.85;1.10;;;;;;;;;;5052745;28;20036;-47
2023/10/22 08:06:11;;;;;;;2.47;1.80;;;;;;;;;;5051558;28;20033;-49
2023/10/22 08:08:36;;;;;;;3.92;1.67;;;;;;;;;;5051495;28;20049;-45
2023/10/22 08:11:03;;;;;;;2.53;2.22;;;;;;;;;;5052973;28;20033;-48
2023/10/22 08:13:29;;;;;;;3.63;1.25;;;;;;;;;;5053919;28;20041;-48
2023/10/22 08:15:56;;;;;;;3.05;1.20;;;;;;;;;;5048868;28;20031;-47
2023/10/22 08:18:22;;;;;;;3.47;1.90;;;;;;;;;;5050741;28;20041;-49
2023/10/22 08:20:47;;;;;;;3.30;2.20;;;;;;;;;;5056430;28;20075;-45
2023/10/22 08:23:13;;;;;;;2.45;2.08;;;;;;;;;;5053379;28;20041;-48
2023/10/22 08:25:38;;;;;;;3.03;2.35;;;;;;;;;;5065889;28;20459;-47
2023/10/22 08:28:04;;;;;;;2.90;1.70;;;;;;;;;;5058986;28;20037;-47
2023/10/22 08:30:29;;;;;;;3.63;2.50;;;;;;;;;;5057875;28;20036;-46
2023/10/22 08:32:54;;;;;;;4.28;1.25;;;;;;;;;;5052697;28;20055;-44
2023/10/22 08:35:21;;;;;;;4.95;1.42;;;;;;;;;;5048568;28;20025;-45
2023/10/22 08:37:46;;;;;;;4.28;1.45;;;;;;;;;;5051080;28;20094;-46
2023/10/22 08:40:12;;;;;;;4.40;3.13;;;;;;;;;;5054790;28;20045;-46
2023/10/22 08:42:38;;;;;;;4.30;2.20;;;;;;;;;;5052605;28;20090;-48
2023/10/22 08:45:05;;;;;;;4.03;1.13;;;;;;;;;;5051937;28;20040;-49
2023/10/22 08:47:31;;;;;;;1.98;1.05;;;;;;;;;;5047403;28;20079;-47
2023/10/22 08:49:58;;;;;;;2.83;1.15;;;;;;;;;;5056367;28;20033;-45
2023/10/22 08:52:24;;;;;;;2.38;1.50;;;;;;;;;;5052553;28;20044;-47
2023/10/22 08:54:51;;;;;;;3.33;1.48;;;;;;;;;;5050151;28;20017;-46
2023/10/22 08:57:20;;;;;;;2.33;1.35;;;;;;;;;;5044798;28;20041;-48
2023/10/22 08:59:47;;;;;;;2.45;1.20;;;;;;;;;;5052175;28;20063;-46
2023/10/22 09:02:13;;;;;;;3.10;1.50;;;;;;;;;;5051480;28;20041;-49
2023/10/22 09:04:39;;;;;;;1.35;0.82;;;;;;;;;;5054403;28;20044;-50
2023/10/22 09:07:05;;;;;;;3.00;1.02;;;;;;;;;;5055539;28;20485;-47
2023/10/22 09:09:34;;;;;;;3.17;1.65;;;;;;;;;;5058502;28;20029;-46
2023/10/22 09:12:00;;;;;;;4.03;0.98;;;;;;;;;;5066615;28;20682;-45
2023/10/22 09:14:26;;;;;;;1.63;0.93;;;;;;;;;;5049698;28;20048;-44
2023/10/22 09:16:51;;;;;;;5.85;0.95;;;;;;;;;;5053919;28;20033;-48
2023/10/22 09:19:37;;;;;;;2.33;0.57;;;;;;;;;;5052505;28;20036;-48
2023/10/22 09:22:04;;;;;;;1.80;1.70;;;;;;;;;;5064993;28;20029;-48
2023/10/22 09:24:32;;;;;;;2.80;1.20;;;;;;;;;;5044715;28;20034;-46
2023/10/22 09:26:57;;;;;;;1.83;0.98;;;;;;;;;;5047253;28;20080;-46
2023/10/22 09:29:24;;;;;;;2.65;1.00;;;;;;;;;;5049994;28;20509;-46
2023/10/22 09:31:54;;;;;;;2.65;0.73;;;;;;;;;;5049568;28;20048;-46
2023/10/22 09:34:25;;;;;;;1.67;0.98;;;;;;;;;;5049619;28;20025;-44
2023/10/22 09:36:51;;;;;;;1.77;0.40;;;;;;;;;;5050659;28;20040;-47
2023/10/22 09:39:44;;;;;;;2.25;0.50;;;;;;;;;;5053815;28;20154;-45
2023/10/22 09:42:11;;;;;;;2.30;1.02;;;;;;;;;;5048615;28;20394;-47
2023/10/22 09:44:40;;;;;;;2.42;0.95;;;;;;;;;;5043504;28;20033;-50
2023/10/22 09:47:06;;;;;;;1.85;0.90;;;;;;;;;;5055828;28;20037;-47
2023/10/22 09:49:38;;;;;;;3.03;0.80;;;;;;;;;;5053955;28;20467;-49
2023/10/22 09:52:06;;;;;;;3.80;0.95;;;;;;;;;;5066178;28;20071;-47
2023/10/22 09:54:39;;;;;;;2.03;1.05;;;;;;;;;;5063673;28;20053;-48
2023/10/22 09:57:11;;;;;;;1.17;0.93;;;;;;;;;;5056261;28;20051;-45
2023/10/22 09:59:39;;;;;;;1.90;0.75;;;;;;;;;;5060887;28;20025;-46
2023/10/22 10:02:05;;;;;;;4.68;0.82;;;;;;;;;;5054140;28;20155;-48
2023/10/22 10:04:33;;;;;;;2.65;1.13;;;;;;;;;;5044512;28;20029;-49
2023/10/22 10:07:02;;;;;;;2.65;0.60;;;;;;;;;;5043487;28;20098;-48
2023/10/22 10:09:28;;;;;;;;;;;;;;;;;;5055834;28;20059;-46
2023/10/22 10:11:54;;;;;;;2.47;1.67;;;;;;;;;;5050514;28;20325;-47
2023/10/22 10:14:45;;;;;;;2.40;1.55;;;;;;;;;;5048774;28;20051;-48
2023/10/22 10:17:11;;;;;;;2.13;0.28;;;;;;;;;;5054345;28;20070;-44
2023/10/22 10:19:37;;;;;;;2.38;2.17;;;;;;;;;;5051364;28;20032;-46
2023/10/22 10:22:03;;;;;;;2.53;1.63;;;;;;;;;;5049079;28;20033;-45
2023/10/22 10:24:30;;;;;;;2.15;1.80;;;;;;;;;;5048790;28;20233;-45
2023/10/22 10:26:56;;;;;;;2.78;1.35;;;;;;;;;;5046873;28;20049;-48
2023/10/22 10:29:31;;;;;;;1.35;0.93;;;;;;;;;;5049621;28;20040;-46
2023/10/22 10:32:17;;;;;;;2.05;1.33;;;;;;;;;;5042847;28;20514;-47
2023/10/22 10:34:46;;;;;;;1.95;0.85;;;;;;;;;;5037125;28;20032;-47
2023/10/22 10:37:13;;;;;;;2.83;0.70;;;;;;;;;;5051829;28;20040;-49
2023/10/22 10:39:40;;;;;;;2.90;1.08;;;;;;;;;;5057223;28;20155;-46
2023/10/22 10:42:06;;;;;;;2.13;1.60;;;;;;;;;;5050393;28;20050;-47
2023/10/22 10:44:51;;;;;;;3.50;1.58;;;;;;;;;;5048663;28;20036;-47
2023/10/22 10:47:20;;;;;;;2.17;0.85;;;;;;;;;;5057836;28;20086;-46
2023/10/22 10:50:07;;;;;;;3.15;0.90;;;;;;;;;;5063662;28;20040;-48
2023/10/22 10:52:38;;;;;;;3.63;1.17;;;;;;;;;;5053958;28;20040;-46
2023/10/22 10:55:08;;;;;;;2.85;1.40;;;;;;;;;;5058740;28;20033;-45
2023/10/22 10:57:38;;;;;;;1.75;0.90;;;;;;;;;;5051737;28;20037;-44
2023/10/22 11:00:13;;;;;;;1.48;0.30;;;;;;;;;;5060927;28;20498;-50
2023/10/22 11:02:49;;;;;;;1.45;0.47;;;;;;;;;;5049686;28;20041;-48
2023/10/22 11:05:16;;;;;;;3.58;1.73;;;;;;;;;;5054969;28;20960;-48
2023/10/22 11:07:45;;;;;;;3.33;2.15;;;;;;;;;;5052349;28;20079;-44
2023/10/22 11:10:14;;;;;;;5.20;2.92;;;;;;;;;;5056314;28;20028;-42
2023/10/22 11:12:40;;;;;;;1.42;0.30;;;;;;;;;;5055006;28;20529;-44
2023/10/22 11:15:08;;;;;;;3.20;0.80;;;;;;;;;;5053326;28;20120;-46
2023/10/22 11:17:34;;;;;;;4.75;1.17;;;;;;;;;;5052960;28;20687;-47
2023/10/22 11:20:00;;;;;;;2.28;0.68;;;;;;;;;;5045139;28;20033;-46
2023/10/22 11:22:27;;;;;;;2.67;0.85;;;;;;;;;;5055508;28;20048;-43
2023/10/22 11:24:55;;;;;;;2.05;0.82;;;;;;;;;;5046514;28;20032;-46
2023/10/22 11:27:22;;;;;;;3.47;1.17;;;;;;;;;;5048608;28;20227;-45
2023/10/22 11:29:48;;;;;;;2.22;0.82;;;;;;;;;;5050636;28;20573;-42
2023/10/22 11:32:16;;;;;;;2.28;0.75;;;;;;;;;;5048016;28;20040;-44
2023/10/22 11:34:57;;;;;;;2.40;1.55;;;;;;;;;;5050050;28;20029;-46
2023/10/22 11:37:38;;;;;;;1.38;0.93;;;;;;;;;;5045934;28;20044;-46
2023/10/22 11:40:23;;;;;;;2.30;0.70;;;;;;;;;;5053554;28;20048;-46
2023/10/22 11:42:49;;;;;;;2.85;0.57;;;;;;;;;;5049881;28;20489;-46
2023/10/22 11:45:14;;;;;;;3.33;1.23;;;;;;;;;;5045611;28;20022;-42
2023/10/22 11:47:39;;;;;;;1.92;0.40;;;;;;;;;;5050356;28;20033;-45
2023/10/22 11:50:05;;;;;;;1.58;0.55;;;;;;;;;;5047268;28;20063;-43
2023/10/22 11:52:46;;;;;;;0.80;0.10;;;;;;;;;;5044125;28;20482;-44
2023/10/22 11:55:12;;;;;;;1.33;0.75;;;;;;;;;;5052876;28;20056;-42
2023/10/22 11:57:40;;;;;;;3.10;0.90;;;;;;;;;;5054963;28;20065;-46
2023/10/22 12:00:09;;;;;;;2.10;1.42;;;;;;;;;;5054209;28;20069;-44
2023/10/22 12:02:35;;;;;;;1.40;1.00;;;;;;;;;;5049535;28;20132;-43
2023/10/22 12:05:00;;;;;;;1.20;0.63;;;;;;;;;;5055863;28;20068;-45
2023/10/22 12:07:26;;;;;;;4.80;1.27;;;;;;;;;;5052365;28;20057;-44
2023/10/22 12:09:51;;;;;;;2.72;0.82;;;;;;;;;;5055787;28;20076;-45
2023/10/22 12:12:16;;;;;;;1.52;0.68;;;;;;;;;;5053089;28;20110;-44
2023/10/22 12:14:42;;;;;;;0.80;0.63;;;;;;;;;;5066004;28;20031;-47
2023/10/22 12:17:08;;;;;;;2.50;0.77;;;;;;;;;;5044900;28;20044;-46
2023/10/22 12:19:34;;;;;;;1.42;0.93;;;;;;;;;;5058659;28;20036;-45
2023/10/22 12:21:59;;;;;;;2.78;0.90;;;;;;;;;;5055080;28;20041;-43
2023/10/22 12:24:25;;;;;;;1.35;0.80;;;;;;;;;;5051169;28;20052;-43
2023/10/22 12:26:50;;;;;;;1.23;0.82;;;;;;;;;;5056259;28;20037;-46
2023/10/22 12:29:16;;;;;;;2.17;0.95;;;;;;;;;;5051135;28;20029;-47
2023/10/22 12:31:41;;;;;;;1.98;0.60;;;;;;;;;;5053095;28;20045;-46
2023/10/22 12:34:07;;;;;;;1.88;0.75;;;;;;;;;;5046738;28;20463;-45
2023/10/22 12:36:33;;;;;;;2.08;0.28;;;;;;;;;;5057320;28;20067;-46
2023/10/22 12:38:58;;;;;;;1.88;0.38;;;;;;;;;;5057407;28;20037;-44
2023/10/22 12:41:24;;;;;;;1.73;1.00;;;;;;;;;;5054293;28;20348;-48
2023/10/22 12:43:50;;;;;;;1.98;0.85;;;;;;;;;;5055606;28;20029;-46
2023/10/22 12:46:15;;;;;;;3.53;1.27;;;;;;;;;;5062376;28;20033;-43
2023/10/22 12:48:41;;;;;;;1.27;0.57;;;;;;;;;;5064527;28;20453;-46
2023/10/22 12:51:06;;;;;;;1.73;0.77;;;;;;;;;;5054276;28;20043;-46
2023/10/22 12:53:31;;;;;;;0.93;0.75;;;;;;;;;;5055858;28;20057;-42
2023/10/22 12:55:57;;;;;;;1.33;0.70;;;;;;;;;;5060787;28;20159;-45
2023/10/22 12:58:24;;;;;;;3.15;1.13;;;;;;;;;;5061517;28;20040;-45
2023/10/22 13:00:50;;;;;;;2.08;0.95;;;;;;;;;;5070673;28;20102;-44
2023/10/22 13:03:16;;;;;;;1.55;0.32;;;;;;;;;;5057951;28;20033;-44
2023/10/22 13:05:41;;;;;;;2.50;0.85;;;;;;;;;;5058496;28;20060;-46
2023/10/22 13:08:09;;;;;;;2.35;0.52;;;;;;;;;;5055387;28;20045;-46
2023/10/22 13:10:55;;;;;;;2.22;0.50;;;;;;;;;;5063694;28;20674;-46
2023/10/22 13:13:20;;;;;;;1.02;0.63;;;;;;;;;;5054025;28;20583;-45
2023/10/22 13:15:46;;;;;;;0.73;0.50;;;;;;;;;;5057740;28;20036;-43
2023/10/22 13:18:11;;;;;;;1.48;0.30;;;;;;;;;;5050837;28;20033;-46
2023/10/22 13:20:37;;;;;;;1.27;0.45;;;;;;;;;;5057134;28;20031;-43
2023/10/22 13:23:02;;;;;;;1.42;0.50;;;;;;;;;;5049595;28;20037;-43
2023/10/22 13:25:28;;;;;;;1.52;0.57;;;;;;;;;;5055878;28;20029;-44
2023/10/22 13:27:53;;;;;;;0.82;0.40;;;;;;;;;;5055738;28;20578;-46
2023/10/22 13:30:18;;;;;;;1.25;0.95;;;;;;;;;;5055870;28;20076;-47
2023/10/22 13:32:44;;;;;;;0.65;0.50;;;;;;;;;;5059841;28;20040;-48
2023/10/22 13:35:09;;;;;;;0.68;0.45;;;;;;;;;;5063749;28;20028;-43
2023/10/22 13:37:36;;;;;;;1.50;0.65;;;;;;;;;;5052365;28;20041;-48
2023/10/22 13:40:03;;;;;;;1.35;0.98;;;;;;;;;;5055427;28;20021;-47
2023/10/22 13:42:29;;;;;;;2.80;0.40;;;;;;;;;;5060482;28;20044;-43
2023/10/22 13:44:54;;;;;;;1.42;0.45;;;;;;;;;;5055755;28;20033;-43
2023/10/22 13:47:19;;;;;;;2.28;0.70;;;;;;;;;;5059431;28;20082;-43
2023/10/22 13:49:45;;;;;;;1.67;0.60;;;;;;;;;;5059511;28;20037;-45
2023/10/22 13:52:10;;;;;;;1.88;0.63;;;;;;;;;;5048533;28;20117;-43
2023/10/22 13:54:36;;;;;;;1.15;1.05;;;;;;;;;;5057869;28;20021;-42
2023/10/22 13:57:01;;;;;;;2.13;0.52;;;;;;;;;;5057557;28;20036;-45
2023/10/22 13:59:27;;;;;;;1.50;1.40;;;;;;;;;;5059001;28;20537;-46
2023/10/22 14:01:52;;;;;;;1.38;0.52;;;;;;;;;;5047034;28;20167;-43
2023/10/22 14:04:17;;;;;;;2.40;0.60;;;;;;;;;;5057687;28;20502;-44
2023/10/22 14:06:43;;;;;;;0.80;0.43;;;;;;;;;;5056742;28;20375;-43
2023/10/22 14:09:10;;;;;;;4.22;0.98;;;;;;;;;;5064493;28;20475;-46
2023/10/22 14:11:36;;;;;;;1.15;0.73;;;;;;;;;;5059086;28;20056;-45
2023/10/22 14:14:02;;;;;;;3.03;1.42;;;;;;;;;;5055550;28;20063;-45
2023/10/22 14:16:28;;;;;;;1.27;0.88;;;;;;;;;;5056763;28;20474;-47
2023/10/22 14:18:53;;;;;;;1.67;1.00;;;;;;;;;;5052356;28;20475;-46
2023/10/22 14:21:20;;;;;;;1.52;0.57;;;;;;;;;;5050283;28;20037;-47
2023/10/22 14:23:46;;;;;;;2.05;1.85;;;;;;;;;;5056614;28;20083;-44
2023/10/22 14:26:12;;;;;;;1.02;0.50;;;;;;;;;;5054793;28;20035;-44
2023/10/22 14:28:37;;;;;;;0.85;0.63;;;;;;;;;;5062154;28;20032;-47
2023/10/22 14:31:06;;;;;;;0.68;0.38;;;;;;;;;;5056742;28;20028;-44
2023/10/22 14:33:32;;;;;;;1.70;0.80;;;;;;;;;;5047755;28;20061;-45
2023/10/22 14:36:05;;;;;;;1.05;0.35;;;;;;;;;;5033244;28;20040;-44
2023/10/22 14:38:31;;;;;;;0.95;0.47;;;;;;;;;;5048833;28;20048;-44
2023/10/22 14:41:04;;;;;;;2.58;2.38;;;;;;;;;;5070102;28;20625;-43